Time;durP1;ratioP1;P1;durP2;ratioP2;P2;SDS_P1;SDS_P2;PMS_P1;PMS_P2;Temp;Humidity;BMP_temperature;BMP_pressure;BME280_temperature;BME280_humidity;BME280_pressure;Samples;Min_cycle;Max_cycle;Signal;HPM_P1;HPM_P2
2024/03/14 00:01:56;;;;;;;2.30;1.15;;;10.70;99.90;;;;;;5144017;23;20174;-92
2024/03/14 00:03:57;;;;;;;4.97;2.83;;;10.60;99.90;;;;;;5143894;23;20237;-96
2024/03/14 00:05:58;;;;;;;4.40;1.70;;;10.60;99.90;;;;;;5169085;23;20237;-92
2024/03/14 00:08:00;;;;;;;2.72;1.77;;;10.70;99.90;;;;;;5143498;23;20152;-95
2024/03/14 00:10:01;;;;;;;3.47;2.10;;;10.60;99.90;;;;;;5143621;23;20187;-92
2024/03/14 00:12:03;;;;;;;4.20;2.03;;;10.60;99.90;;;;;;5143815;23;20179;-92
2024/03/14 00:14:04;;;;;;;3.58;2.10;;;10.60;99.90;;;;;;5143741;23;20151;-92
2024/03/14 00:16:05;;;;;;;3.92;2.55;;;10.60;99.90;;;;;;5143639;23;20158;-95
2024/03/14 00:18:06;;;;;;;5.68;2.60;;;10.60;99.90;;;;;;5143636;23;20152;-95
2024/03/14 00:20:11;;;;;;;6.95;2.20;;;10.60;99.90;;;;;;5143635;23;20223;-95
2024/03/14 00:22:13;;;;;;;3.60;2.00;;;10.60;99.90;;;;;;5143660;23;20530;-92
2024/03/14 00:24:14;;;;;;;4.63;2.08;;;10.60;99.90;;;;;;5143312;23;20754;-92
2024/03/14 00:26:16;;;;;;;5.82;2.35;;;10.50;99.90;;;;;;5143685;23;20154;-92
2024/03/14 00:28:18;;;;;;;3.83;2.17;;;10.50;99.90;;;;;;5143259;23;20226;-95
2024/03/14 00:30:19;;;;;;;2.25;1.90;;;10.60;99.90;;;;;;5143716;23;20171;-94
2024/03/14 00:32:20;;;;;;;5.40;2.30;;;10.60;99.90;;;;;;5143607;23;20556;-95
2024/03/14 00:34:21;;;;;;;5.57;2.08;;;10.60;99.90;;;;;;5145006;23;20168;-92
2024/03/14 00:36:22;;;;;;;3.10;1.80;;;10.70;99.90;;;;;;5144547;23;20594;-93
2024/03/14 00:38:23;;;;;;;4.90;2.45;;;10.70;99.90;;;;;;5169048;23;20151;-92
2024/03/14 00:40:24;;;;;;;5.13;2.72;;;10.70;99.90;;;;;;5143225;23;20180;-96
2024/03/14 00:42:26;;;;;;;3.20;2.08;;;10.70;99.90;;;;;;5170072;23;20170;-95
2024/03/14 00:44:27;;;;;;;4.80;2.65;;;10.60;99.90;;;;;;5144670;23;20195;-92
2024/03/14 00:46:30;;;;;;;5.80;2.67;;;10.70;99.90;;;;;;5143683;23;20151;-91
2024/03/14 00:48:33;;;;;;;4.82;2.17;;;10.70;99.90;;;;;;5169265;23;20217;-96
2024/03/14 00:50:35;;;;;;;5.25;2.60;;;10.60;99.90;;;;;;5144497;23;20175;-93
2024/03/14 00:52:37;;;;;;;4.35;2.40;;;10.50;99.90;;;;;;5169718;23;20636;-93
2024/03/14 00:54:38;;;;;;;4.68;2.65;;;10.40;99.90;;;;;;5144009;23;20166;-95
2024/03/14 00:56:40;;;;;;;4.03;2.28;;;10.50;99.90;;;;;;5143376;23;20586;-91
2024/03/14 00:58:41;;;;;;;4.05;2.55;;;10.40;99.90;;;;;;5143502;23;20155;-95
2024/03/14 01:00:42;;;;;;;6.93;2.35;;;10.40;99.90;;;;;;5143983;23;20669;-93
2024/03/14 01:02:43;;;;;;;3.45;2.38;;;10.30;99.90;;;;;;5144043;23;20148;-93
2024/03/14 01:04:45;;;;;;;4.85;2.15;;;10.30;99.90;;;;;;5143455;23;20197;-92
2024/03/14 01:06:47;;;;;;;2.88;1.63;;;10.40;99.90;;;;;;5143342;23;20547;-91
2024/03/14 01:08:49;;;;;;;4.75;2.47;;;10.60;99.90;;;;;;5143213;23;20160;-94
2024/03/14 01:10:50;;;;;;;4.82;2.78;;;10.60;99.90;;;;;;5144045;23;20147;-91
2024/03/14 01:12:51;;;;;;;7.03;2.38;;;10.60;99.90;;;;;;5143364;23;20575;-95
2024/03/14 01:14:52;;;;;;;4.50;2.42;;;10.50;99.90;;;;;;5143402;23;20640;-95
2024/03/14 01:16:53;;;;;;;5.90;2.75;;;10.60;99.90;;;;;;5143466;23;20156;-95
2024/03/14 01:18:54;;;;;;;3.53;2.10;;;10.50;99.90;;;;;;5143749;23;20209;-96
2024/03/14 01:20:55;;;;;;;3.97;2.42;;;10.40;99.90;;;;;;5144025;23;20554;-93
2024/03/14 01:22:56;;;;;;;5.40;2.00;;;10.40;99.90;;;;;;5143007;23;20156;-91
2024/03/14 01:24:57;;;;;;;5.85;2.08;;;10.40;99.90;;;;;;5168057;23;20285;-92
2024/03/14 01:26:57;;;;;;;5.18;2.20;;;10.30;99.90;;;;;;5143005;23;20633;-91
2024/03/14 01:28:59;;;;;;;6.07;2.78;;;10.20;99.90;;;;;;5142931;23;20159;-93
2024/03/14 01:31:00;;;;;;;4.43;2.28;;;10.20;99.90;;;;;;5143250;23;20144;-91
2024/03/14 01:33:03;;;;;;;4.60;2.35;;;10.20;99.90;;;;;;5143196;23;20254;-91
2024/03/14 01:35:05;;;;;;;7.18;2.42;;;10.10;99.90;;;;;;5143100;23;20143;-91
2024/03/14 01:37:06;;;;;;;8.25;2.83;;;10.20;99.90;;;;;;5168164;22;20154;-95
2024/03/14 01:39:11;;;;;;;3.88;1.95;;;10.20;99.90;;;;;;5142960;23;20657;-91
2024/03/14 01:41:21;;;;;;;4.15;2.38;;;10.20;99.90;;;;;;5143300;23;20179;-91
2024/03/14 01:43:22;;;;;;;3.95;2.30;;;10.30;99.90;;;;;;5168417;23;20154;-93
2024/03/14 01:45:23;;;;;;;7.47;2.38;;;10.30;99.90;;;;;;5144212;23;20163;-94
2024/03/14 01:47:24;;;;;;;3.50;1.83;;;10.20;99.90;;;;;;5145059;23;20147;-93
2024/03/14 01:49:25;;;;;;;5.22;2.55;;;10.20;99.90;;;;;;5143072;23;20168;-95
2024/03/14 01:51:30;;;;;;;5.47;2.13;;;10.30;99.90;;;;;;5143023;23;20148;-93
2024/03/14 01:53:31;;;;;;;3.75;2.40;;;10.30;99.90;;;;;;5143472;23;20238;-96
2024/03/14 01:55:32;;;;;;;3.95;2.13;;;10.40;99.90;;;;;;5143229;23;20156;-91
2024/03/14 01:57:39;;;;;;;7.03;2.88;;;10.30;99.90;;;;;;5144097;23;20161;-91
2024/03/14 01:59:41;;;;;;;12.98;2.90;;;10.30;99.90;;;;;;5168554;23;20162;-92
2024/03/14 02:01:42;;;;;;;6.25;3.00;;;10.30;99.90;;;;;;5143876;23;20183;-92
2024/03/14 02:03:54;;;;;;;3.30;2.05;;;10.30;99.90;;;;;;5143483;23;20175;-91
2024/03/14 02:06:07;;;;;;;4.55;2.60;;;10.30;99.90;;;;;;5143316;23;20213;-92
2024/03/14 02:08:08;;;;;;;5.45;2.38;;;10.30;99.90;;;;;;5142821;23;20182;-94
2024/03/14 02:10:13;;;;;;;4.05;1.92;;;10.40;99.90;;;;;;5168005;23;20171;-93
2024/03/14 02:12:14;;;;;;;3.38;1.98;;;10.30;99.90;;;;;;5168306;23;20170;-92
2024/03/14 02:14:15;;;;;;;3.10;1.98;;;10.30;99.90;;;;;;5143016;23;20147;-93
2024/03/14 02:16:16;;;;;;;3.40;2.03;;;10.30;99.90;;;;;;5142900;23;20578;-92
2024/03/14 02:18:18;;;;;;;3.78;2.25;;;10.20;99.90;;;;;;5142976;23;20156;-93
2024/03/14 02:20:20;;;;;;;4.75;2.30;;;10.20;99.90;;;;;;5142575;23;20172;-92
2024/03/14 02:22:22;;;;;;;5.38;2.47;;;10.10;99.90;;;;;;5144741;23;20158;-92
2024/03/14 02:24:22;;;;;;;7.18;2.30;;;9.90;99.90;;;;;;5153074;22;20183;-92
2024/03/14 02:26:23;;;;;;;4.43;2.38;;;10.00;99.90;;;;;;5165351;22;20143;-91
2024/03/14 02:28:24;;;;;;;5.15;2.35;;;9.90;99.90;;;;;;5143215;23;20155;-94
2024/03/14 02:30:25;;;;;;;4.35;1.90;;;9.90;99.90;;;;;;5142653;23;20171;-92
2024/03/14 02:32:26;;;;;;;5.32;2.22;;;9.80;99.90;;;;;;5167745;23;20190;-92
2024/03/14 02:34:27;;;;;;;3.58;1.98;;;9.80;99.90;;;;;;5142940;23;20148;-92
2024/03/14 02:36:28;;;;;;;3.63;1.90;;;9.70;99.90;;;;;;5142953;23;20552;-92
2024/03/14 02:38:29;;;;;;;4.13;2.20;;;9.60;99.90;;;;;;5167689;23;20151;-92
2024/03/14 02:40:30;;;;;;;3.92;1.83;;;9.60;99.90;;;;;;5142528;23;20175;-92
2024/03/14 02:42:31;;;;;;;3.65;1.90;;;9.60;99.90;;;;;;5142550;23;20147;-95
2024/03/14 02:44:33;;;;;;;3.58;2.22;;;9.50;99.90;;;;;;5142537;23;20515;-96
2024/03/14 02:46:34;;;;;;;3.95;2.03;;;9.50;99.90;;;;;;5142723;23;20258;-91
2024/03/14 02:48:37;;;;;;;4.53;2.30;;;9.40;99.90;;;;;;5142754;23;20151;-92
2024/03/14 02:50:38;;;;;;;3.90;2.33;;;9.40;99.90;;;;;;5167787;23;20170;-96
2024/03/14 02:52:39;;;;;;;4.43;2.00;;;9.50;99.90;;;;;;5142727;23;20166;-92
2024/03/14 02:54:40;;;;;;;4.35;2.65;;;9.50;99.90;;;;;;5142961;23;20147;-95
2024/03/14 02:56:42;;;;;;;5.50;2.33;;;9.50;99.90;;;;;;5142344;23;20214;-91
2024/03/14 02:58:43;;;;;;;3.92;2.25;;;9.50;99.90;;;;;;5142649;23;20148;-92
2024/03/14 03:00:44;;;;;;;3.60;1.90;;;9.50;99.90;;;;;;5142946;23;20262;-92
2024/03/14 03:02:45;;;;;;;4.15;1.80;;;9.40;99.90;;;;;;5142599;23;20234;-94
2024/03/14 03:04:46;;;;;;;4.05;2.72;;;9.40;99.90;;;;;;5142759;23;20629;-92
2024/03/14 03:06:54;;;;;;;3.90;1.95;;;9.50;99.90;;;;;;5142809;23;20193;-92
2024/03/14 03:08:57;;;;;;;3.90;2.28;;;9.50;99.90;;;;;;5142893;23;20154;-92
2024/03/14 03:10:58;;;;;;;6.65;2.03;;;9.50;99.90;;;;;;5142943;23;20602;-96
2024/03/14 03:12:59;;;;;;;4.78;2.28;;;9.50;99.90;;;;;;5167811;23;20158;-92
2024/03/14 03:15:00;;;;;;;6.65;2.03;;;9.50;99.90;;;;;;5142825;23;20147;-92
2024/03/14 03:17:01;;;;;;;2.92;2.03;;;9.60;99.90;;;;;;5142869;23;20186;-92
2024/03/14 03:19:04;;;;;;;3.40;2.15;;;9.50;99.90;;;;;;5142616;23;20155;-94
2024/03/14 03:21:05;;;;;;;2.25;1.48;;;9.50;99.90;;;;;;5168102;23;20470;-91
2024/03/14 03:23:06;;;;;;;3.22;2.13;;;9.50;99.90;;;;;;5142339;23;20155;-95
2024/03/14 03:25:09;;;;;;;2.72;1.83;;;9.50;99.90;;;;;;5142616;23;20241;-96
2024/03/14 03:27:13;;;;;;;2.72;1.70;;;9.60;99.90;;;;;;5142349;23;20152;-92
2024/03/14 03:29:14;;;;;;;5.55;2.08;;;9.60;99.90;;;;;;5142028;23;20174;-92
2024/03/14 03:31:15;;;;;;;3.15;1.85;;;9.60;99.90;;;;;;5142343;23;20155;-92
2024/03/14 03:33:20;;;;;;;3.42;1.95;;;9.60;99.90;;;;;;5142792;23;20151;-92
2024/03/14 03:35:21;;;;;;;3.65;1.35;;;9.50;99.90;;;;;;5142073;23;20152;-92
2024/03/14 03:37:24;;;;;;;3.13;1.52;;;9.50;99.90;;;;;;5141742;23;20583;-92
2024/03/14 03:39:25;;;;;;;4.22;2.22;;;9.50;99.90;;;;;;5142302;23;20175;-93
2024/03/14 03:41:29;;;;;;;3.03;1.70;;;9.50;99.90;;;;;;5142467;23;20221;-92
2024/03/14 03:43:30;;;;;;;2.58;1.60;;;9.50;99.90;;;;;;5141965;23;20151;-93
2024/03/14 03:45:31;;;;;;;3.10;1.70;;;9.50;99.90;;;;;;5142487;23;20171;-94
2024/03/14 03:47:32;;;;;;;3.05;1.80;;;9.40;99.90;;;;;;5142511;23;20210;-95
2024/03/14 03:49:34;;;;;;;3.08;1.60;;;9.50;99.90;;;;;;5142204;23;20227;-93
2024/03/14 03:51:35;;;;;;;2.95;1.60;;;9.40;99.90;;;;;;5142729;23;20645;-94
2024/03/14 03:53:36;;;;;;;2.35;1.40;;;9.40;99.90;;;;;;5142009;23;20151;-93
2024/03/14 03:55:37;;;;;;;3.45;2.08;;;9.30;99.90;;;;;;5142600;23;20143;-96
2024/03/14 03:57:39;;;;;;;2.33;1.52;;;9.30;99.90;;;;;;5142541;23;20158;-91
2024/03/14 03:59:40;;;;;;;1.67;1.20;;;9.40;99.90;;;;;;5142455;23;20171;-93
2024/03/14 04:01:41;;;;;;;2.78;1.63;;;9.40;99.90;;;;;;5142322;23;20152;-96
2024/03/14 04:03:41;;;;;;;2.95;1.40;;;9.30;99.90;;;;;;5142543;23;20183;-94
2024/03/14 04:05:43;;;;;;;2.97;1.50;;;9.20;99.90;;;;;;5142556;23;20178;-94
2024/03/14 04:07:44;;;;;;;1.55;1.15;;;9.10;99.90;;;;;;5143040;23;20154;-94
2024/03/14 04:09:51;;;;;;;4.15;2.15;;;9.10;99.90;;;;;;5142464;23;20167;-94
2024/03/14 04:11:51;;;;;;;4.43;2.30;;;9.10;99.90;;;;;;5167406;23;20205;-92
2024/03/14 04:13:53;;;;;;;4.22;2.45;;;9.10;99.90;;;;;;5142211;23;20156;-96
2024/03/14 04:15:56;;;;;;;4.97;2.22;;;9.10;99.90;;;;;;5142800;23;20156;-92
2024/03/14 04:17:57;;;;;;;9.27;3.00;;;9.00;99.90;;;;;;5142907;23;20148;-92
2024/03/14 04:20:02;;;;;;;4.70;2.33;;;9.00;99.90;;;;;;5142451;23;20199;-95
2024/03/14 04:22:04;;;;;;;9.77;3.38;;;9.00;99.90;;;;;;5167526;23;20286;-93
2024/03/14 04:24:06;;;;;;;5.43;2.67;;;9.00;99.90;;;;;;5142421;23;20203;-96
2024/03/14 04:26:09;;;;;;;6.88;2.50;;;9.00;99.90;;;;;;5142688;23;20152;-94
2024/03/14 04:28:10;;;;;;;4.97;2.63;;;9.00;99.90;;;;;;5142561;23;20159;-95
2024/03/14 04:30:13;;;;;;;7.85;2.30;;;9.00;99.90;;;;;;5167464;23;20170;-95
2024/03/14 04:32:14;;;;;;;7.78;3.33;;;9.00;99.90;;;;;;5142400;23;20156;-95
2024/03/14 04:34:15;;;;;;;7.88;3.05;;;9.00;99.90;;;;;;5167928;23;20147;-92
2024/03/14 04:36:18;;;;;;;7.60;2.97;;;9.00;99.90;;;;;;5142703;23;20156;-93
2024/03/14 04:38:23;;;;;;;5.90;2.53;;;9.00;99.90;;;;;;5141878;23;20158;-95
2024/03/14 04:40:24;;;;;;;6.03;2.75;;;8.90;99.90;;;;;;5142197;23;20172;-95
2024/03/14 04:42:26;;;;;;;6.75;3.05;;;9.10;99.90;;;;;;5142453;23;20214;-93
2024/03/14 04:44:26;;;;;;;10.25;2.85;;;9.00;99.90;;;;;;5145229;23;20187;-94
2024/03/14 04:46:27;;;;;;;7.07;2.70;;;9.00;99.90;;;;;;5160716;22;20135;-95
2024/03/14 04:48:29;;;;;;;4.95;2.75;;;8.90;99.90;;;;;;5157065;22;20160;-93
2024/03/14 04:50:30;;;;;;;7.25;2.63;;;8.90;99.90;;;;;;5168466;23;20233;-96
2024/03/14 04:52:31;;;;;;;5.95;2.30;;;8.80;99.90;;;;;;5143347;23;20164;-92
2024/03/14 04:54:32;;;;;;;4.05;2.13;;;8.80;99.90;;;;;;5168658;23;20143;-95
2024/03/14 04:56:33;;;;;;;7.03;3.03;;;8.80;99.90;;;;;;5143640;23;20154;-93
2024/03/14 04:58:37;;;;;;;7.68;2.28;;;8.80;99.90;;;;;;5143722;23;20563;-91
2024/03/14 05:00:38;;;;;;;6.53;2.42;;;8.70;99.90;;;;;;5143254;23;20199;-92
2024/03/14 05:02:39;;;;;;;5.65;2.13;;;8.70;99.90;;;;;;5143610;23;20155;-93
2024/03/14 05:04:40;;;;;;;3.70;2.28;;;8.70;99.90;;;;;;5143495;23;20191;-95
2024/03/14 05:06:45;;;;;;;5.22;2.28;;;8.70;99.90;;;;;;5143718;23;20151;-92
2024/03/14 05:08:46;;;;;;;4.55;2.20;;;8.70;99.90;;;;;;5168962;23;20629;-94
2024/03/14 05:10:47;;;;;;;4.28;2.25;;;8.70;99.90;;;;;;5143793;23;20205;-92
2024/03/14 05:12:48;;;;;;;8.75;2.88;;;8.70;99.90;;;;;;5143685;23;20587;-92
2024/03/14 05:14:49;;;;;;;5.07;2.65;;;8.70;99.90;;;;;;5168700;23;20150;-92
2024/03/14 05:16:50;;;;;;;7.57;3.17;;;8.70;99.90;;;;;;5143512;23;20148;-93
2024/03/14 05:18:51;;;;;;;5.20;2.67;;;8.60;99.90;;;;;;5143664;23;20158;-96
2024/03/14 05:20:55;;;;;;;4.40;2.13;;;8.70;99.90;;;;;;5143098;23;20168;-94
2024/03/14 05:22:57;;;;;;;11.82;3.40;;;8.60;99.90;;;;;;5169300;23;20155;-94
2024/03/14 05:25:03;;;;;;;8.43;3.47;;;8.70;99.90;;;;;;5120969;23;20278;-91
2024/03/14 05:27:04;;;;;;;8.98;3.45;;;8.70;99.90;;;;;;5143219;23;20234;-92
2024/03/14 05:29:05;;;;;;;9.05;3.10;;;8.70;99.90;;;;;;5143325;23;20155;-91
2024/03/14 05:31:06;;;;;;;6.85;2.67;;;8.80;99.90;;;;;;5168943;23;20220;-91
2024/03/14 05:33:07;;;;;;;13.75;3.85;;;8.70;99.90;;;;;;5144474;23;20151;-93
2024/03/14 05:35:10;;;;;;;6.05;2.58;;;8.80;99.90;;;;;;5169167;23;20154;-91
2024/03/14 05:37:11;;;;;;;7.72;2.90;;;8.70;99.90;;;;;;5145332;23;20242;-93
2024/03/14 05:39:14;;;;;;;7.35;3.42;;;8.70;99.90;;;;;;5144806;23;20171;-96
2024/03/14 05:41:15;;;;;;;8.18;3.30;;;8.60;99.90;;;;;;5143905;23;20156;-91
2024/03/14 05:43:16;;;;;;;5.50;2.55;;;8.60;99.90;;;;;;5143840;23;20148;-92
2024/03/14 05:45:17;;;;;;;4.05;2.22;;;8.60;99.90;;;;;;5143376;23;20261;-92
2024/03/14 05:47:18;;;;;;;6.82;2.45;;;8.50;99.90;;;;;;5143580;23;20552;-91
2024/03/14 05:49:19;;;;;;;7.10;3.03;;;8.50;99.90;;;;;;5169388;23;20621;-92
2024/03/14 05:51:20;;;;;;;5.05;2.05;;;8.50;99.90;;;;;;5144371;23;20144;-92
2024/03/14 05:53:21;;;;;;;5.10;2.50;;;8.50;99.90;;;;;;5143780;23;20164;-92
2024/03/14 05:55:21;;;;;;;7.88;2.45;;;8.50;99.90;;;;;;5168292;23;20524;-91
2024/03/14 05:57:22;;;;;;;4.45;2.03;;;8.40;99.90;;;;;;5143629;23;20199;-92
2024/03/14 05:59:24;;;;;;;3.55;2.17;;;8.50;99.90;;;;;;5143376;23;20259;-91
2024/03/14 06:01:25;;;;;;;5.10;2.22;;;8.50;99.90;;;;;;5143805;23;20286;-92
2024/03/14 06:03:26;;;;;;;5.65;2.78;;;8.60;99.90;;;;;;5143377;23;20148;-93
2024/03/14 06:05:27;;;;;;;5.07;2.47;;;8.60;99.90;;;;;;5143136;23;20160;-93
2024/03/14 06:07:28;;;;;;;2.95;1.42;;;8.70;99.90;;;;;;5146497;23;20236;-93
2024/03/14 06:09:39;;;;;;;3.58;1.85;;;8.70;99.90;;;;;;5151090;23;20175;-92
2024/03/14 06:11:47;;;;;;;4.20;2.22;;;8.60;99.90;;;;;;5176850;23;20138;-93
2024/03/14 06:13:50;;;;;;;5.25;1.95;;;8.60;99.90;;;;;;5150798;23;20223;-93
2024/03/14 06:15:52;;;;;;;4.28;1.73;;;8.60;99.90;;;;;;5175734;23;20234;-92
2024/03/14 06:17:57;;;;;;;5.18;1.92;;;8.60;99.90;;;;;;5178761;23;20151;-92
2024/03/14 06:20:07;;;;;;;5.20;1.88;;;8.50;99.90;;;;;;5177953;23;20167;-92
2024/03/14 06:22:10;;;;;;;5.57;2.08;;;8.50;99.90;;;;;;5154328;23;20163;-92
2024/03/14 06:24:16;;;;;;;6.75;1.90;;;8.60;99.90;;;;;;5178101;22;20620;-92
2024/03/14 06:26:20;;;;;;;3.30;1.60;;;8.50;99.90;;;;;;5157018;23;20190;-92
2024/03/14 06:28:23;;;;;;;4.43;1.83;;;8.60;99.90;;;;;;5153122;23;20147;-93
2024/03/14 06:30:23;;;;;;;2.65;1.88;;;8.60;99.90;;;;;;5150366;23;20171;-95
2024/03/14 06:32:27;;;;;;;6.82;1.92;;;8.70;99.90;;;;;;5172474;23;20155;-93
2024/03/14 06:34:35;;;;;;;2.80;1.50;;;8.70;99.90;;;;;;5145027;23;20159;-96
2024/03/14 06:36:39;;;;;;;2.75;1.67;;;8.70;99.90;;;;;;5144768;23;20477;-93
2024/03/14 06:38:47;;;;;;;2.63;1.67;;;8.70;99.90;;;;;;5149714;23;20155;-95
2024/03/14 06:41:17;;;;;;;3.28;1.52;;;8.70;99.90;;;;;;5148906;23;20164;-96
2024/03/14 06:43:27;;;;;;;2.45;1.45;;;8.80;99.90;;;;;;5147318;23;20151;-95
2024/03/14 06:45:46;;;;;;;3.88;1.95;;;8.80;99.90;;;;;;5147035;23;20175;-95
2024/03/14 06:50:25;;;;;;;5.25;1.50;;;8.80;99.90;;;;;;5169626;23;20174;-95
2024/03/14 06:52:34;;;;;;;1.83;1.05;;;8.90;99.90;;;;;;5146468;23;20163;-95
2024/03/14 06:55:09;;;;;;;2.55;1.38;;;9.10;99.90;;;;;;5172994;23;20149;-96
2024/03/14 06:57:25;;;;;;;5.63;1.85;;;9.30;99.90;;;;;;5148582;23;20179;-96
2024/03/14 06:59:52;;;;;;;4.82;1.77;;;9.50;99.90;;;;;;5172163;23;20167;-96
2024/03/14 07:02:07;;;;;;;2.97;1.77;;;10.30;99.90;;;;;;5147976;23;20162;-96
2024/03/14 07:04:33;;;;;;;2.03;1.45;;;10.70;99.90;;;;;;5145698;23;20644;-93
2024/03/14 07:06:43;;;;;;;4.72;2.30;;;11.40;99.90;;;;;;5139993;23;20159;-94
2024/03/14 07:08:56;;;;;;;2.83;1.80;;;11.70;99.90;;;;;;5147161;23;20152;-94
2024/03/14 07:11:11;;;;;;;3.03;1.80;;;11.60;99.90;;;;;;5154117;23;20174;-92
2024/03/14 07:13:27;;;;;;;3.35;1.45;;;12.20;99.90;;;;;;5169801;23;20179;-94
2024/03/14 07:15:52;;;;;;;3.47;1.88;;;12.30;99.90;;;;;;5145601;23;20163;-96
2024/03/14 07:18:09;;;;;;;;;;;;;;;;;;;;;
2024/03/14 07:20:35;;;;;;;5.72;1.83;;;12.40;99.90;;;;;;5171299;23;20197;-94
2024/03/14 07:22:39;;;;;;;3.55;1.70;;;12.40;99.90;;;;;;5146374;23;20148;-95
2024/03/14 07:25:04;;;;;;;4.40;1.80;;;12.20;99.90;;;;;;5143192;23;20195;-94
2024/03/14 07:27:15;;;;;;;2.42;1.50;;;12.30;99.90;;;;;;5168968;23;20174;-95
2024/03/14 07:32:12;;;;;;;2.80;1.60;;;12.80;99.90;;;;;;5129008;23;20259;-94
2024/03/14 07:34:57;;;;;;;4.40;2.00;;;13.10;99.90;;;;;;5147154;23;20249;-94
2024/03/14 07:40:32;;;;;;;7.93;3.05;;;12.80;99.90;;;;;;5132086;23;20378;-95
2024/03/14 07:42:47;;;;;;;7.35;3.40;;;13.20;99.90;;;;;;5106814;23;20283;-95
2024/03/14 07:45:31;;;;;;;7.30;3.30;;;13.40;99.90;;;;;;5143635;23;20183;-96
2024/03/14 07:48:20;;;;;;;7.05;3.13;;;13.80;99.90;;;;;;5170382;23;20158;-94
2024/03/14 07:51:13;;;;;;;;;;;;;;;;;;;;;
2024/03/14 07:54:11;;;;;;;7.97;3.83;;;15.10;99.90;;;;;;5172092;23;20209;-96
2024/03/14 07:56:51;;;;;;;;;;;;;;;;;;;;;
2024/03/14 08:02:39;;;;;;;;;;;;;;;;;;;;;
2024/03/14 08:09:51;;;;;;;6.10;1.67;;;14.60;99.90;;;;;;5092112;23;20181;-95
2024/03/14 08:12:34;;;;;;;;;;;;;;;;;;;;;
2024/03/14 08:19:50;;;;;;;6.57;2.38;;;13.20;99.90;;;;;;5065616;23;20188;-95
2024/03/14 08:25:16;;;;;;;4.60;1.40;;;13.00;99.90;;;;;;5024193;23;20190;-96
2024/03/14 08:27:57;;;;;;;;;;;;;;;;;;;;;
2024/03/14 08:31:04;;;;;;;3.65;1.60;;;13.20;99.90;;;;;;5069613;23;20272;-94
2024/03/14 08:34:21;;;;;;;;;;;;;;;;;;;;;
2024/03/14 08:36:33;;;;;;;4.25;1.88;;;13.70;99.90;;;;;;5052802;23;20154;-95
2024/03/14 09:13:30;;;;;;;3.67;1.70;;;14.60;99.90;;;;;;5216963;22;20212;-94
2024/03/14 09:45:38;;;;;;;5.70;2.38;;;15.20;99.90;;;;;;5216190;22;20736;-96
2024/03/14 09:57:00;;;;;;;58.95;7.80;;;15.60;99.90;;;;;;5112751;23;20151;-94
2024/03/14 10:02:22;;;;;;;10.68;2.92;;;16.40;99.90;;;;;;5191428;22;20153;-93
2024/03/14 10:04:39;;;;;;;7.60;2.30;;;16.60;99.90;;;;;;5173387;23;20197;-94
2024/03/14 10:07:45;;;;;;;4.72;2.13;;;16.10;99.90;;;;;;5146590;23;20148;-94
2024/03/14 10:09:51;;;;;;;24.33;3.45;;;15.80;99.90;;;;;;5121511;23;20180;-94
2024/03/14 10:12:01;;;;;;;18.35;3.72;;;15.50;99.90;;;;;;5143888;23;20147;-94
2024/03/14 10:14:17;;;;;;;30.33;4.07;;;15.60;99.90;;;;;;5146298;23;20159;-94
2024/03/14 10:16:21;;;;;;;17.30;3.80;;;15.50;99.90;;;;;;5144205;23;20239;-95
2024/03/14 10:18:34;;;;;;;9.07;3.45;;;15.40;99.90;;;;;;5144434;23;20162;-95
2024/03/14 10:21:07;;;;;;;7.13;2.92;;;15.20;99.90;;;;;;5142676;23;20175;-93
2024/03/14 10:23:29;;;;;;;11.82;2.60;;;15.20;99.90;;;;;;5146945;23;20178;-96
2024/03/14 10:26:18;;;;;;;6.65;2.33;;;15.20;99.90;;;;;;5148183;23;20168;-96
2024/03/14 10:31:43;;;;;;;5.15;1.70;;;15.40;99.90;;;;;;5196525;22;20153;-95
2024/03/14 10:34:53;;;;;;;;;;;;;;;;;;;;;
2024/03/14 10:41:41;;;;;;;2.60;0.93;;;15.60;99.90;;;;;;5200598;22;20201;-94
2024/03/14 10:45:08;;;;;;;;;;;;;;;;;;;;;
2024/03/14 11:00:17;;;;;;;4.82;1.95;;;16.10;99.90;;;;;;5028972;23;20192;-95
2024/03/14 11:03:34;;;;;;;;;;;;;;;;;;;;;
2024/03/14 11:06:33;;;;;;;5.30;2.35;;;16.20;99.90;;;;;;5018102;23;20204;-95
2024/03/14 11:09:08;;;;;;;7.68;1.90;;;16.60;99.90;;;;;;5045269;23;20157;-94
2024/03/14 11:11:58;;;;;;;;;;;;;;;;;;;;;
2024/03/14 11:14:25;;;;;;;4.55;1.60;;;16.50;99.90;;;;;;5143373;23;20182;-95
2024/03/14 11:17:30;;;;;;;4.05;1.77;;;16.50;99.90;;;;;;5143240;23;20489;-95
2024/03/14 11:20:09;;;;;;;6.60;1.50;;;16.50;99.90;;;;;;5116690;23;20172;-96
2024/03/14 11:23:10;;;;;;;4.85;2.22;;;16.40;99.90;;;;;;5068712;23;20161;-95
2024/03/14 11:29:32;;;;;;;;;;;;;;;;;;;;;
2024/03/14 11:32:33;;;;;;;3.85;1.45;;;17.10;99.90;;;;;;5135901;23;20202;-94
2024/03/14 11:35:15;;;;;;;3.88;1.30;;;17.10;99.90;;;;;;5120237;23;20198;-94
2024/03/14 11:41:39;;;;;;;;;;;;;;;;;;;;;
2024/03/14 11:45:04;;;;;;;4.53;1.50;;;17.10;99.90;;;;;;5129302;23;20152;-95
2024/03/14 11:48:08;;;;;;;4.63;0.98;;;17.30;99.90;;;;;;5152443;23;20678;-94
2024/03/14 11:51:31;;;;;;;2.55;0.65;;;17.30;99.90;;;;;;5053478;23;20193;-94
2024/03/14 11:53:59;;;;;;;0.60;0.35;;;17.40;99.90;;;;;;5067206;23;20166;-93
2024/03/14 12:00:08;;;;;;;1.20;0.32;;;17.50;99.90;;;;;;5083707;23;20610;-96
2024/03/14 12:03:07;;;;;;;0.25;0.25;;;17.20;99.90;;;;;;5061663;23;20164;-94
2024/03/14 12:05:41;;;;;;;;;;;;;;;;;;;;;
2024/03/14 12:08:25;;;;;;;0.28;0.25;;;17.30;99.90;;;;;;5108605;23;20183;-94
2024/03/14 12:11:33;;;;;;;0.80;0.30;;;17.20;99.90;;;;;;5090254;23;20189;-94
2024/03/14 12:14:37;;;;;;;1.58;0.17;;;17.20;99.90;;;;;;5163611;22;20158;-94
2024/03/14 12:17:46;;;;;;;;;;;;;;;;;;;;;
2024/03/14 12:20:36;;;;;;;1.25;0.35;;;17.10;99.90;;;;;;5211910;22;20256;-93
2024/03/14 12:22:47;;;;;;;2.55;0.20;;;17.30;99.90;;;;;;5207146;22;20138;-94
2024/03/14 12:25:05;;;;;;;0.95;0.20;;;17.30;99.90;;;;;;5154934;23;20198;-92
2024/03/14 12:30:43;;;;;;;1.13;0.30;;;17.40;99.90;;;;;;5149606;23;20178;-96
2024/03/14 12:33:10;;;;;;;1.20;0.20;;;17.30;99.90;;;;;;5157492;23;20162;-94
2024/03/14 12:36:06;;;;;;;2.67;0.20;;;17.30;99.90;;;;;;5191981;22;20170;-96
2024/03/14 12:38:41;;;;;;;0.45;0.17;;;17.60;99.90;;;;;;5151410;23;20154;-95
2024/03/14 12:41:13;;;;;;;0.82;0.50;;;17.80;99.90;;;;;;5148643;23;20170;-94
2024/03/14 12:46:41;;;;;;;0.40;0.20;;;17.60;99.90;;;;;;5195962;22;20252;-95
2024/03/14 12:48:46;;;;;;;0.77;0.20;;;17.70;99.90;;;;;;5145726;23;20162;-95
2024/03/14 12:51:26;;;;;;;0.52;0.20;;;17.70;99.90;;;;;;5168392;22;20226;-95
2024/03/14 12:53:32;;;;;;;0.55;0.20;;;17.50;99.90;;;;;;5169907;23;20154;-94
2024/03/14 12:56:17;;;;;;;0.70;0.28;;;17.80;99.90;;;;;;5147018;23;20284;-94
2024/03/14 12:58:38;;;;;;;;;;;;;;;;;;;;;
2024/03/14 13:01:30;;;;;;;4.63;0.38;;;18.20;99.90;;;;;;5202887;22;20162;-94
2024/03/14 13:04:02;;;;;;;0.68;0.30;;;18.70;99.90;;;;;;5144558;23;20205;-94
2024/03/14 13:06:23;;;;;;;0.90;0.30;;;18.60;99.90;;;;;;5127817;23;20167;-94
2024/03/14 13:08:48;;;;;;;0.52;0.20;;;18.60;99.90;;;;;;5169486;23;20455;-93
2024/03/14 13:11:53;;;;;;;1.02;0.40;;;18.60;99.90;;;;;;5143700;23;20200;-94
2024/03/14 13:14:34;;;;;;;0.63;0.20;;;18.40;99.90;;;;;;5095531;23;20156;-95
2024/03/14 13:17:13;;;;;;;2.58;0.20;;;18.10;99.90;;;;;;5147496;23;20162;-95
2024/03/14 13:19:54;;;;;;;0.50;0.20;;;18.10;99.90;;;;;;5159151;22;20175;-94
2024/03/14 13:22:31;;;;;;;;;;;;;;;;;;;;;
2024/03/14 13:24:57;;;;;;;1.00;0.43;;;18.40;99.90;;;;;;5168122;23;20248;-93
2024/03/14 13:27:22;;;;;;;0.30;0.10;;;18.80;99.90;;;;;;5171615;22;20146;-94
2024/03/14 13:29:49;;;;;;;1.40;0.43;;;18.80;99.90;;;;;;5169695;23;20186;-94
2024/03/14 13:32:11;;;;;;;2.05;0.30;;;18.90;99.90;;;;;;5144518;23;20152;-94
2024/03/14 13:34:34;;;;;;;1.05;0.50;;;18.70;99.90;;;;;;5169279;23;20582;-95
2024/03/14 13:37:03;;;;;;;1.67;0.50;;;18.30;99.90;;;;;;5147979;23;20147;-95
2024/03/14 13:39:26;;;;;;;1.27;0.57;;;18.10;99.90;;;;;;5144057;23;20270;-94
2024/03/14 13:41:42;;;;;;;1.58;0.40;;;18.10;99.90;;;;;;5145861;23;20205;-93
2024/03/14 13:44:29;;;;;;;1.13;0.38;;;18.10;99.90;;;;;;5173077;22;20163;-95
2024/03/14 13:46:56;;;;;;;1.15;0.63;;;18.10;99.90;;;;;;5174624;23;20166;-95
2024/03/14 13:52:07;;;;;;;;;;;;;;;;;;;;;
2024/03/14 13:54:56;;;;;;;;;;;;;;;;;;;;;
2024/03/14 13:58:03;;;;;;;;;;;;;;;;;;;;;
2024/03/14 14:00:22;;;;;;;1.48;0.43;;;18.70;99.90;;;;;;5170310;23;20171;-96
2024/03/14 14:02:55;;;;;;;;;;;;;;;;;;;;;
2024/03/14 14:06:03;;;;;;;3.20;0.40;;;18.70;99.90;;;;;;5194988;22;20185;-95
2024/03/14 14:08:28;;;;;;;3.30;0.43;;;18.60;99.90;;;;;;5151937;23;20155;-94
2024/03/14 14:10:45;;;;;;;0.95;0.40;;;18.20;99.90;;;;;;5145388;23;20250;-95
2024/03/14 14:12:59;;;;;;;1.15;0.30;;;18.40;99.90;;;;;;5144621;23;20147;-95
2024/03/14 14:15:44;;;;;;;1.15;0.40;;;18.40;99.90;;;;;;5145939;23;20159;-94
2024/03/14 14:17:57;;;;;;;0.77;0.40;;;18.10;99.90;;;;;;5193523;22;20150;-96
2024/03/14 14:20:08;;;;;;;0.82;0.28;;;18.40;99.90;;;;;;5168456;23;20249;-94
2024/03/14 14:22:43;;;;;;;;;;;;;;;;;;;;;
2024/03/14 14:24:56;;;;;;;1.38;0.40;;;18.20;99.90;;;;;;5168622;23;20225;-94
2024/03/14 14:27:22;;;;;;;2.25;0.30;;;18.20;99.90;;;;;;5168596;23;20226;-95